createdAt,value
2019-05-10T00:01:31.597Z,11.95
2019-05-10T00:04:03.002Z,12.13
2019-05-10T00:06:34.670Z,12.25
2019-05-10T00:09:06.237Z,13.55
2019-05-10T00:11:37.906Z,12.58
2019-05-10T00:14:11.361Z,13.68
2019-05-10T00:16:42.787Z,13.30
2019-05-10T00:19:12.965Z,12.70
2019-05-10T00:21:43.346Z,12.70
2019-05-10T00:24:13.662Z,13.53
2019-05-10T00:26:44.009Z,13.83
2019-05-10T00:29:14.101Z,14.20
2019-05-10T00:31:44.545Z,13.90
2019-05-10T00:34:14.948Z,13.40
2019-05-10T00:36:45.064Z,13.80
2019-05-10T00:39:19.118Z,14.30
2019-05-10T00:41:47.140Z,13.13
2019-05-10T00:44:17.607Z,12.78
2019-05-10T00:46:47.997Z,12.90
2019-05-10T00:49:18.677Z,12.75
2019-05-10T00:51:48.844Z,13.38
2019-05-10T00:54:18.974Z,14.23
2019-05-10T00:56:49.325Z,14.40
2019-05-10T00:59:19.488Z,14.55
2019-05-10T01:01:49.826Z,14.65
2019-05-10T01:04:20.214Z,14.40
2019-05-10T01:06:50.358Z,14.65
2019-05-10T01:09:20.741Z,14.40
2019-05-10T01:11:51.111Z,13.95
2019-05-10T01:14:21.491Z,14.58
2019-05-10T01:16:51.865Z,14.70
2019-05-10T01:19:22.070Z,14.80
2019-05-10T01:21:52.652Z,13.90
2019-05-10T01:24:23.068Z,14.33
2019-05-10T01:26:53.501Z,14.40
2019-05-10T01:29:23.741Z,13.93
2019-05-10T01:32:40.164Z,14.20
2019-05-10T01:35:10.989Z,13.62
2019-05-10T01:37:41.940Z,13.18
2019-05-10T01:40:12.404Z,14.20
2019-05-10T01:42:42.937Z,15.08
2019-05-10T01:45:14.857Z,13.93
2019-05-10T01:47:45.283Z,14.98
2019-05-10T01:50:15.876Z,14.93
2019-05-10T01:52:46.336Z,14.70
2019-05-10T01:55:16.702Z,14.65
2019-05-10T01:57:46.940Z,14.20
2019-05-10T02:00:17.718Z,14.70
2019-05-10T02:02:48.287Z,14.73
2019-05-10T02:05:19.105Z,15.38
2019-05-10T02:07:49.549Z,15.28
2019-05-10T02:10:19.975Z,15.78
2019-05-10T02:12:50.294Z,16.00
2019-05-10T02:15:20.762Z,16.90
2019-05-10T02:17:51.091Z,16.75
2019-05-10T02:20:21.378Z,16.48
2019-05-10T02:22:53.273Z,16.65
2019-05-10T02:25:23.598Z,16.90
2019-05-10T02:27:53.859Z,16.45
2019-05-10T02:30:24.409Z,17.75
2019-05-10T02:32:54.750Z,17.00
2019-05-10T02:35:55.755Z,17.10
2019-05-10T02:38:26.158Z,17.07
2019-05-10T02:40:56.515Z,17.27
2019-05-10T02:43:26.765Z,17.03
2019-05-10T02:45:57.576Z,16.93
2019-05-10T02:48:27.960Z,16.82
2019-05-10T02:50:58.527Z,18.48
2019-05-10T02:53:28.707Z,17.37
2019-05-10T02:55:59.900Z,16.95
2019-05-10T02:58:30.325Z,17.87
2019-05-10T03:01:02.959Z,18.05
2019-05-10T03:03:34.730Z,17.65
2019-05-10T03:06:05.668Z,17.62
2019-05-10T03:08:38.703Z,16.85
2019-05-10T03:11:10.202Z,17.27
2019-05-10T03:13:43.331Z,18.02
2019-05-10T03:16:16.663Z,17.40
2019-05-10T03:18:48.963Z,17.48
2019-05-10T03:21:20.314Z,17.92
2019-05-10T03:23:51.264Z,17.70
2019-05-10T03:26:21.795Z,18.57
2019-05-10T03:28:52.298Z,18.20
2019-05-10T03:31:22.773Z,18.95
2019-05-10T03:33:56.961Z,18.02
2019-05-10T03:36:24.828Z,18.30
2019-05-10T03:38:55.161Z,17.97
2019-05-10T03:41:25.723Z,16.48
2019-05-10T03:43:56.009Z,17.55
2019-05-10T03:46:26.443Z,17.80
2019-05-10T03:48:56.625Z,18.25
2019-05-10T03:52:32.559Z,18.10
2019-05-10T03:55:03.410Z,18.27
2019-05-10T03:57:33.598Z,17.80
2019-05-10T04:00:03.841Z,17.20
2019-05-10T04:02:34.136Z,17.75
2019-05-10T04:05:04.753Z,17.90
2019-05-10T04:07:34.960Z,17.37
2019-05-10T04:10:06.993Z,17.42
2019-05-10T04:12:38.287Z,16.45
2019-05-10T04:15:09.989Z,18.57
2019-05-10T04:17:40.515Z,17.67
2019-05-10T04:20:11.836Z,18.30
2019-05-10T04:22:42.224Z,17.62
2019-05-10T04:25:12.889Z,17.93
2019-05-10T04:27:43.443Z,17.17
2019-05-10T04:30:14.254Z,16.97
2019-05-10T04:32:44.613Z,16.82
2019-05-10T04:35:15.236Z,16.45
2019-05-10T04:37:45.575Z,16.77
2019-05-10T04:40:16.516Z,17.07
2019-05-10T04:42:46.835Z,17.20
2019-05-10T04:45:17.584Z,17.12
2019-05-10T04:47:47.968Z,18.02
2019-05-10T04:50:18.332Z,17.02
2019-05-10T04:52:48.587Z,17.37
2019-05-10T04:55:18.881Z,16.80
2019-05-10T04:57:51.182Z,16.85
2019-05-10T05:00:21.186Z,16.43
2019-05-10T05:02:51.498Z,20.35
2019-05-10T05:05:21.725Z,21.87
2019-05-10T05:07:52.002Z,20.90
2019-05-10T05:10:22.360Z,16.67
2019-05-10T05:12:52.799Z,15.48
2019-05-10T05:15:23.231Z,15.93
2019-05-10T05:17:53.902Z,17.80
2019-05-10T05:20:24.244Z,18.27
2019-05-10T05:22:54.748Z,17.48
2019-05-10T05:25:25.096Z,16.97
2019-05-10T05:28:07.309Z,16.67
2019-05-10T05:30:27.236Z,16.32
2019-05-10T05:32:57.395Z,15.83
2019-05-10T05:35:27.833Z,14.43
2019-05-10T05:37:58.204Z,14.93
2019-05-10T05:40:28.908Z,13.95
2019-05-10T05:43:02.649Z,15.20
2019-05-10T05:45:33.921Z,15.65
2019-05-10T05:48:03.899Z,13.53
2019-05-10T05:50:34.191Z,13.80
2019-05-10T05:53:05.033Z,14.13
2019-05-10T05:55:36.034Z,13.83
2019-05-10T05:58:07.284Z,14.18
2019-05-10T06:00:44.787Z,15.08
2019-05-10T06:03:09.550Z,15.10
2019-05-10T06:05:40.037Z,15.72
2019-05-10T06:08:22.787Z,15.75
2019-05-10T06:10:43.965Z,15.90
2019-05-10T06:13:13.547Z,15.53
2019-05-10T06:15:44.000Z,16.27
2019-05-10T06:18:14.302Z,17.50
2019-05-10T06:20:46.901Z,15.50
2019-05-10T06:23:16.146Z,15.28
2019-05-10T06:25:46.379Z,16.05
2019-05-10T06:28:26.631Z,15.80
2019-05-10T06:30:48.765Z,15.33
2019-05-10T06:33:19.124Z,15.15
2019-05-10T06:35:49.399Z,15.83
2019-05-10T06:38:19.915Z,16.42
2019-05-10T06:40:50.278Z,16.42
2019-05-10T06:43:20.563Z,16.93
2019-05-10T06:45:52.436Z,17.30
2019-05-10T06:50:42.506Z,16.33
2019-05-10T06:53:12.727Z,18.10
2019-05-10T06:55:43.012Z,18.50
2019-05-10T06:58:13.254Z,18.62
2019-05-10T07:00:47.288Z,18.62
2019-05-10T07:03:15.777Z,18.55
2019-05-10T07:05:46.315Z,18.90
2019-05-10T07:08:20.303Z,19.50
2019-05-10T07:10:49.894Z,19.50
2019-05-10T07:13:20.399Z,19.35
2019-05-10T07:15:50.979Z,20.32
2019-05-10T07:18:22.549Z,20.20
2019-05-10T07:20:52.849Z,20.57
2019-05-10T07:23:23.225Z,20.45
2019-05-10T07:25:53.683Z,20.52
2019-05-10T07:28:24.105Z,21.00
2019-05-10T07:30:54.417Z,19.87
2019-05-10T07:33:24.693Z,20.47
2019-05-10T07:35:55.057Z,20.43
2019-05-10T07:38:30.814Z,22.67
2019-05-10T07:40:59.321Z,19.00
2019-05-10T07:43:29.749Z,18.60
2019-05-10T07:46:06.054Z,19.42
2019-05-10T07:48:31.604Z,19.43
2019-05-10T07:51:02.087Z,18.60
2019-05-10T07:53:32.320Z,18.97
2019-05-10T07:56:06.020Z,17.80
2019-05-10T07:58:38.366Z,25.37
2019-05-10T08:01:06.225Z,18.15
2019-05-10T08:03:44.221Z,18.80
2019-05-10T08:06:08.405Z,18.37
2019-05-10T08:08:39.243Z,18.73
2019-05-10T08:11:09.688Z,17.90
2019-05-10T08:13:40.015Z,17.95
2019-05-10T08:16:18.898Z,17.62
2019-05-10T08:18:42.670Z,17.67
2019-05-10T08:21:21.690Z,18.00
2019-05-10T08:23:44.912Z,18.00
2019-05-10T08:26:20.257Z,17.57
2019-05-10T08:28:47.024Z,16.83
2019-05-10T08:31:17.522Z,16.65
2019-05-10T08:33:56.216Z,16.37
2019-05-10T08:36:21.785Z,15.15
2019-05-10T08:39:00.590Z,15.97
2019-05-10T08:41:23.135Z,16.60
2019-05-10T08:43:53.471Z,16.02
2019-05-10T08:46:28.731Z,15.70
2019-05-10T08:48:55.592Z,14.53
2019-05-10T08:51:26.736Z,14.18
2019-05-10T08:53:58.344Z,14.45
2019-05-10T08:56:28.762Z,14.63
2019-05-10T08:58:59.071Z,14.00
2019-05-10T09:01:30.579Z,13.32
2019-05-10T09:04:06.557Z,12.75
2019-05-10T09:06:32.968Z,12.20
2019-05-10T09:09:05.948Z,12.70
2019-05-10T09:11:35.035Z,12.33
2019-05-10T09:14:05.576Z,11.53
2019-05-10T09:16:43.448Z,11.10
2019-05-10T09:20:26.685Z,11.10
2019-05-10T09:22:57.218Z,11.40
2019-05-10T09:25:30.924Z,11.15
2019-05-10T09:28:02.422Z,11.05
2019-05-10T09:30:35.476Z,10.80
2019-05-10T09:33:08.595Z,10.85
2019-05-10T09:35:38.805Z,11.03
2019-05-10T09:38:08.871Z,11.08
2019-05-10T09:40:42.606Z,11.40
2019-05-10T09:43:14.406Z,11.53
2019-05-10T09:45:42.855Z,10.70
2019-05-10T09:48:13.206Z,11.45
2019-05-10T09:50:47.021Z,10.90
2019-05-10T09:53:22.409Z,11.03
2019-05-10T09:55:55.370Z,10.80
2019-05-10T09:58:22.199Z,11.03
2019-05-10T10:00:51.301Z,11.10
2019-05-10T10:03:22.196Z,11.40
2019-05-10T10:05:55.069Z,11.10
2019-05-10T10:08:24.302Z,10.50
2019-05-10T10:11:01.347Z,10.70
2019-05-10T10:13:39.613Z,10.50
2019-05-10T10:15:58.271Z,11.35
2019-05-10T10:18:28.562Z,10.72
2019-05-10T10:20:58.851Z,11.48
2019-05-10T10:23:33.529Z,12.30
2019-05-10T10:26:01.829Z,12.55
2019-05-10T10:28:32.218Z,12.25
2019-05-10T10:31:05.284Z,12.00
2019-05-10T10:33:34.044Z,12.50
2019-05-10T10:36:07.314Z,11.45
2019-05-10T10:38:37.127Z,11.63
2019-05-10T10:41:08.263Z,12.47
2019-05-10T10:43:38.881Z,13.00
2019-05-10T10:46:12.402Z,13.40
2019-05-10T10:48:43.647Z,14.33
2019-05-10T10:51:12.884Z,12.98
2019-05-10T10:53:43.274Z,13.30
2019-05-10T10:56:13.734Z,13.60
2019-05-10T10:58:44.088Z,12.90
2019-05-10T11:01:21.701Z,12.23
2019-05-10T11:03:48.706Z,11.97
2019-05-10T11:06:17.664Z,12.43
2019-05-10T11:08:48.004Z,12.85
2019-05-10T11:11:18.199Z,13.20
2019-05-10T11:13:57.938Z,13.10
2019-05-10T11:16:20.820Z,12.60
2019-05-10T11:18:51.890Z,12.77
2019-05-10T11:21:23.305Z,12.50
2019-05-10T11:23:54.694Z,12.73
2019-05-10T11:26:26.772Z,13.15
2019-05-10T11:28:56.593Z,13.95
2019-05-10T11:31:26.810Z,13.83
2019-05-10T11:33:59.210Z,14.45
2019-05-10T11:36:31.068Z,14.13
2019-05-10T11:39:01.598Z,14.50
2019-05-10T11:41:31.931Z,14.63
2019-05-10T11:44:05.264Z,14.63
2019-05-10T11:46:34.024Z,14.98
2019-05-10T11:49:04.867Z,15.63
2019-05-10T11:51:34.918Z,15.00
2019-05-10T11:54:05.233Z,15.35
2019-05-10T11:56:36.481Z,15.53
2019-05-10T11:59:06.986Z,15.20
2019-05-10T12:01:41.499Z,15.85
2019-05-10T12:04:13.018Z,16.27
2019-05-10T12:06:41.356Z,16.77
2019-05-10T12:09:12.710Z,17.00
2019-05-10T12:11:51.635Z,17.80
2019-05-10T12:14:14.513Z,18.15
2019-05-10T12:16:44.862Z,18.07
2019-05-10T12:19:19.849Z,18.57
2019-05-10T12:21:46.776Z,18.60
2019-05-10T12:24:33.407Z,19.35
2019-05-10T12:27:13.046Z,20.32
2019-05-10T12:29:21.305Z,19.85
2019-05-10T12:31:55.180Z,19.90
2019-05-10T12:34:23.421Z,18.23
2019-05-10T12:36:57.443Z,19.57
2019-05-10T12:39:25.280Z,19.40
2019-05-10T12:41:55.480Z,39.40
2019-05-10T12:44:25.854Z,40.80
2019-05-10T12:46:56.246Z,20.82
2019-05-10T12:49:26.393Z,19.75
2019-05-10T12:51:56.925Z,18.23
2019-05-10T12:54:27.279Z,19.07
2019-05-10T12:56:57.622Z,19.17
2019-05-10T12:59:29.699Z,19.70
2019-05-10T13:02:04.345Z,19.00
2019-05-10T13:04:40.074Z,22.48
2019-05-10T13:07:03.070Z,21.10
2019-05-10T13:09:39.824Z,21.25
2019-05-10T13:12:06.298Z,20.53
2019-05-10T13:14:40.130Z,20.35
2019-05-10T13:17:09.860Z,21.73
2019-05-10T13:19:40.422Z,21.57
2019-05-10T13:22:10.712Z,21.70
2019-05-10T13:24:40.880Z,21.40
2019-05-10T13:27:11.432Z,22.90
2019-05-10T13:29:47.067Z,23.35
2019-05-10T13:32:14.934Z,25.50
2019-05-10T13:34:45.020Z,24.60
2019-05-10T13:37:23.231Z,24.25
2019-05-10T13:39:46.970Z,23.87
2019-05-10T13:42:20.927Z,24.15
2019-05-10T13:44:51.180Z,23.98
2019-05-10T13:47:21.500Z,25.32
2019-05-10T13:49:51.562Z,24.83
2019-05-10T13:52:21.935Z,23.85
2019-05-10T13:54:52.681Z,23.43
2019-05-10T13:57:23.019Z,23.27
2019-05-10T13:59:55.107Z,23.35
2019-05-10T14:02:32.695Z,21.87
2019-05-10T14:04:56.962Z,21.75
2019-05-10T14:07:27.316Z,21.73
2019-05-10T14:09:57.511Z,21.48
2019-05-10T14:12:27.746Z,20.60
2019-05-10T14:15:02.992Z,20.48
2019-05-10T14:17:29.807Z,19.90
2019-05-10T14:19:59.921Z,19.67
2019-05-10T14:22:30.534Z,19.00
2019-05-10T14:25:00.931Z,19.02
2019-05-10T14:27:35.940Z,18.42
2019-05-10T14:30:07.352Z,18.67
2019-05-10T14:32:34.584Z,18.02
2019-05-10T14:35:05.771Z,19.32
2019-05-10T14:37:36.071Z,18.40
2019-05-10T14:40:08.216Z,18.57
2019-05-10T14:42:38.489Z,18.75
2019-05-10T14:45:09.162Z,18.87
2019-05-10T14:47:48.305Z,18.87
2019-05-10T14:50:11.416Z,19.42
2019-05-10T14:52:41.838Z,20.08
2019-05-10T14:55:12.998Z,19.87
2019-05-10T14:57:43.513Z,19.45
2019-05-10T15:00:15.769Z,20.37
2019-05-10T15:02:46.230Z,20.52
2019-05-10T15:05:18.243Z,21.60
2019-05-10T15:07:51.044Z,20.60
2019-05-10T15:10:20.271Z,21.77
2019-05-10T15:12:50.407Z,20.88
2019-05-10T15:15:21.445Z,21.97
2019-05-10T15:17:54.919Z,21.07
2019-05-10T15:20:23.213Z,21.27
2019-05-10T15:22:53.667Z,21.02
2019-05-10T15:25:23.966Z,21.15
2019-05-10T15:27:54.846Z,21.10
2019-05-10T15:30:26.709Z,20.43
2019-05-10T15:32:56.908Z,19.50
2019-05-10T15:35:27.309Z,19.00
2019-05-10T15:37:57.475Z,18.82
2019-05-10T15:40:27.934Z,18.90
2019-05-10T15:42:58.227Z,19.50
2019-05-10T15:45:28.471Z,19.73
2019-05-10T15:48:02.833Z,19.55
2019-05-10T15:50:32.485Z,20.15
2019-05-10T15:53:02.697Z,20.17
2019-05-10T15:55:32.899Z,19.90
2019-05-10T15:58:03.318Z,19.50
2019-05-10T16:00:39.117Z,19.90
2019-05-10T16:03:05.114Z,19.55
2019-05-10T16:05:43.620Z,20.30
2019-05-10T16:08:06.923Z,20.27
2019-05-10T16:10:39.373Z,21.00
2019-05-10T16:13:09.033Z,20.20
2019-05-10T16:15:39.328Z,20.17
2019-05-10T16:18:09.387Z,19.57
2019-05-10T16:20:40.107Z,19.60
2019-05-10T16:23:11.221Z,20.57
2019-05-10T16:25:47.585Z,19.93
2019-05-10T16:28:15.422Z,22.13
2019-05-10T16:30:47.041Z,21.20
2019-05-10T16:33:18.147Z,20.45
2019-05-10T16:35:49.538Z,20.05
2019-05-10T16:38:19.321Z,19.15
2019-05-10T16:40:58.598Z,18.35
2019-05-10T16:43:24.629Z,17.70
2019-05-10T16:45:53.106Z,17.77
2019-05-10T16:48:23.305Z,17.07
2019-05-10T16:50:53.640Z,16.40
2019-05-10T16:53:23.962Z,14.98
2019-05-10T16:55:54.282Z,15.00
2019-05-10T16:58:24.285Z,15.38
2019-05-10T17:00:54.709Z,15.15
2019-05-10T17:03:25.382Z,14.63
2019-05-10T17:05:58.711Z,14.73
2019-05-10T17:08:30.809Z,13.73
2019-05-10T17:10:59.435Z,13.70
2019-05-10T17:13:29.618Z,14.28
2019-05-10T17:15:59.924Z,13.65
2019-05-10T17:18:30.253Z,13.70
2019-05-10T17:21:00.481Z,13.70
2019-05-10T17:23:30.926Z,13.75
2019-05-10T17:26:01.148Z,13.93
2019-05-10T17:28:35.366Z,13.28
2019-05-10T17:31:07.740Z,13.85
2019-05-10T17:33:36.777Z,14.35
2019-05-10T17:36:08.725Z,15.05
2019-05-10T17:38:37.988Z,13.72
2019-05-10T17:41:08.317Z,15.13
2019-05-10T17:43:38.667Z,14.65
2019-05-10T17:46:12.674Z,14.45
2019-05-10T17:48:46.797Z,14.63
2019-05-10T17:51:12.475Z,15.20
2019-05-10T17:53:42.778Z,14.57
2019-05-10T17:56:13.078Z,13.80
2019-05-10T17:58:43.277Z,14.83
2019-05-10T18:01:13.771Z,14.80
2019-05-10T18:03:44.035Z,15.15
2019-05-10T18:06:23.576Z,14.98
2019-05-10T18:08:46.229Z,15.10
2019-05-10T18:11:16.609Z,14.77
2019-05-10T18:13:46.952Z,14.40
2019-05-10T18:16:17.407Z,14.53
2019-05-10T18:18:48.473Z,14.75
2019-05-10T18:21:22.275Z,15.05
2019-05-10T18:23:52.548Z,15.48
2019-05-10T18:26:23.023Z,16.50
2019-05-10T18:28:53.267Z,16.12
2019-05-10T18:31:23.678Z,16.27
2019-05-10T18:33:55.677Z,16.32
2019-05-10T18:36:50.008Z,16.10
2019-05-10T18:38:57.108Z,16.35
2019-05-10T18:41:27.337Z,16.57
2019-05-10T18:43:57.649Z,15.65
2019-05-10T18:46:28.202Z,15.70
2019-05-10T18:48:58.335Z,14.83
2019-05-10T18:51:28.778Z,15.48
2019-05-10T18:53:58.935Z,15.00
2019-05-10T18:56:31.314Z,14.63
2019-05-10T18:59:06.883Z,14.58
2019-05-10T19:01:38.260Z,14.67
2019-05-10T19:04:07.391Z,14.67
2019-05-10T19:06:36.453Z,14.63
2019-05-10T19:09:08.475Z,14.17
2019-05-10T19:11:40.530Z,14.47
2019-05-10T19:14:10.583Z,14.40
2019-05-10T19:16:40.850Z,15.58
2019-05-10T19:19:11.169Z,15.78
2019-05-10T19:21:41.545Z,15.93
2019-05-10T19:24:11.872Z,16.17
2019-05-10T19:26:42.099Z,16.02
2019-05-10T19:29:12.424Z,16.10
2019-05-10T19:31:43.360Z,16.33
2019-05-10T19:34:15.452Z,17.07
2019-05-10T19:36:45.168Z,17.27
2019-05-10T19:39:15.652Z,16.95
2019-05-10T19:41:45.964Z,16.85
2019-05-10T19:44:16.602Z,17.10
2019-05-10T19:46:47.033Z,17.15
2019-05-10T19:49:17.342Z,17.97
2019-05-10T19:51:50.278Z,19.00
2019-05-10T19:54:19.982Z,18.98
2019-05-10T19:56:51.169Z,17.00
2019-05-10T19:59:21.360Z,18.32
2019-05-10T20:01:51.526Z,18.83
2019-05-10T20:04:21.871Z,19.25
2019-05-10T20:06:52.107Z,21.33
2019-05-10T20:09:22.666Z,20.92
2019-05-10T20:11:53.028Z,19.75
2019-05-10T20:14:23.344Z,20.00
2019-05-10T20:16:53.870Z,18.95
2019-05-10T20:19:24.385Z,18.70
2019-05-10T20:21:54.641Z,18.57
2019-05-10T20:24:24.964Z,17.90
2019-05-10T20:26:55.308Z,17.63
2019-05-10T20:29:25.874Z,16.30
2019-05-10T20:31:56.292Z,16.67
2019-05-10T20:34:26.890Z,15.80
2019-05-10T20:36:57.116Z,15.70
2019-05-10T20:39:27.389Z,15.60
2019-05-10T20:41:57.622Z,15.63
2019-05-10T20:44:27.972Z,16.67
2019-05-10T20:46:58.407Z,16.37
2019-05-10T20:49:28.541Z,16.60
2019-05-10T20:51:58.836Z,16.23
2019-05-10T20:54:29.278Z,16.65
2019-05-10T20:56:59.580Z,16.52
2019-05-10T20:59:29.806Z,16.90
2019-05-10T21:02:00.110Z,16.75
2019-05-10T21:04:30.489Z,15.75
2019-05-10T21:07:00.671Z,15.68
2019-05-10T21:09:31.393Z,15.80
2019-05-10T21:12:01.581Z,15.58
2019-05-10T21:14:31.807Z,16.60
2019-05-10T21:17:02.257Z,16.62
2019-05-10T21:19:32.386Z,15.83
2019-05-10T21:22:02.700Z,16.57
2019-05-10T21:24:33.067Z,16.17
2019-05-10T21:27:03.398Z,17.05
2019-05-10T21:29:33.686Z,16.97
2019-05-10T21:32:04.245Z,16.93
2019-05-10T21:34:34.560Z,17.10
2019-05-10T21:37:04.794Z,16.82
2019-05-10T21:39:35.334Z,15.77
2019-05-10T21:42:05.561Z,16.30
2019-05-10T21:44:35.872Z,16.12
2019-05-10T21:47:06.258Z,16.10
2019-05-10T21:49:36.485Z,16.17
2019-05-10T21:52:06.616Z,16.27
2019-05-10T21:54:37.054Z,16.55
2019-05-10T21:57:07.366Z,16.50
2019-05-10T21:59:37.688Z,16.23
2019-05-10T22:02:08.393Z,15.73
2019-05-10T22:04:38.691Z,16.53
2019-05-10T22:07:08.767Z,16.60
2019-05-10T22:09:39.269Z,17.03
2019-05-10T22:12:09.760Z,16.25
2019-05-10T22:14:39.752Z,17.00
2019-05-10T22:17:10.005Z,16.30
2019-05-10T22:19:40.325Z,16.67
2019-05-10T22:22:10.486Z,15.85
2019-05-10T22:24:41.021Z,15.18
2019-05-10T22:27:11.314Z,14.93
2019-05-10T22:29:41.421Z,15.43
2019-05-10T22:32:12.325Z,15.28
2019-05-10T22:34:42.878Z,16.50
2019-05-10T22:37:13.221Z,17.23
2019-05-10T22:39:43.694Z,16.42
2019-05-10T22:42:13.910Z,16.17
2019-05-10T22:44:44.230Z,16.27
2019-05-10T22:47:14.722Z,16.23
2019-05-10T22:49:44.865Z,17.27
2019-05-10T22:52:15.067Z,16.73
2019-05-10T22:54:45.539Z,16.80
2019-05-10T22:57:15.835Z,17.45
2019-05-10T22:59:46.209Z,16.90
2019-05-10T23:02:16.541Z,17.27
2019-05-10T23:04:46.770Z,17.50
2019-05-10T23:07:16.930Z,18.17
2019-05-10T23:09:47.302Z,18.45
2019-05-10T23:12:17.612Z,19.42
2019-05-10T23:14:47.826Z,19.65
2019-05-10T23:17:18.173Z,19.37
2019-05-10T23:19:48.501Z,19.37
2019-05-10T23:22:18.783Z,18.52
2019-05-10T23:24:49.230Z,19.15
2019-05-10T23:27:19.429Z,18.70
2019-05-10T23:29:49.576Z,18.50
2019-05-10T23:32:19.995Z,19.80
2019-05-10T23:34:50.381Z,19.10
2019-05-10T23:37:20.589Z,17.45
2019-05-10T23:39:50.930Z,17.77
2019-05-10T23:42:21.161Z,16.90
2019-05-10T23:44:51.396Z,18.37
2019-05-10T23:47:21.751Z,16.93
2019-05-10T23:49:52.273Z,17.15
2019-05-10T23:52:22.316Z,16.30
2019-05-10T23:54:52.366Z,16.62
2019-05-10T23:57:22.841Z,16.57
2019-05-10T23:59:53.250Z,15.93
